createdAt,value
2019-02-04T00:01:22.752Z,63.27
2019-02-04T00:04:14.045Z,63.39
2019-02-04T00:10:21.323Z,63.45
2019-02-04T00:13:13.843Z,63.38
2019-02-04T00:16:40.704Z,63.74
2019-02-04T00:23:09.339Z,63.87
2019-02-04T00:31:34.013Z,64.24
2019-02-04T00:34:05.347Z,64.42
2019-02-04T00:39:45.430Z,64.48
2019-02-04T00:45:41.286Z,64.57
2019-02-04T00:48:11.980Z,64.62
2019-02-04T00:50:45.306Z,64.42
2019-02-04T00:53:38.276Z,64.28
2019-02-04T00:56:23.870Z,64.25
2019-02-04T00:59:02.857Z,64.39
2019-02-04T01:01:42.200Z,64.64
2019-02-04T01:04:12.423Z,65.16
2019-02-04T01:06:42.436Z,65.15
2019-02-04T01:09:18.083Z,65.20
2019-02-04T01:11:55.011Z,65.05
2019-02-04T01:14:24.256Z,64.85
2019-02-04T01:17:03.494Z,64.70
2019-02-04T01:19:47.841Z,64.59
2019-02-04T01:22:19.957Z,64.32
2019-02-04T01:25:01.955Z,63.97
2019-02-04T01:27:38.756Z,63.97
2019-02-04T01:30:20.591Z,63.92
2019-02-04T01:32:51.612Z,64.00
2019-02-04T01:35:30.709Z,64.15
2019-02-04T01:38:09.488Z,64.46
2019-02-04T01:40:45.090Z,64.50
2019-02-04T01:43:16.393Z,64.26
2019-02-04T01:45:56.043Z,64.49
2019-02-04T01:48:39.740Z,64.94
2019-02-04T01:51:32.480Z,65.44
2019-02-04T01:54:04.001Z,65.52
2019-02-04T01:56:44.791Z,65.44
2019-02-04T01:59:20.054Z,65.43
2019-02-04T02:01:51.507Z,65.78
2019-02-04T02:04:24.474Z,65.90
2019-02-04T02:06:54.935Z,65.79
2019-02-04T02:09:29.018Z,65.86
2019-02-04T02:11:58.100Z,65.91
2019-02-04T02:14:28.030Z,65.91
2019-02-04T02:17:05.406Z,66.17
2019-02-04T02:19:40.990Z,66.12
2019-02-04T02:22:11.192Z,65.78
2019-02-04T02:24:41.690Z,65.42
2019-02-04T02:27:11.442Z,65.51
2019-02-04T02:29:40.452Z,65.51
2019-02-04T02:32:15.464Z,65.92
2019-02-04T02:34:49.534Z,66.10
2019-02-04T02:37:25.856Z,66.25
2019-02-04T02:39:56.544Z,66.34
2019-02-04T02:42:28.776Z,66.00
2019-02-04T02:44:59.066Z,65.87
2019-02-04T02:47:38.094Z,65.62
2019-02-04T02:50:01.985Z,65.44
2019-02-04T02:52:32.510Z,65.26
2019-02-04T03:01:53.383Z,65.44
2019-02-04T03:13:45.188Z,65.48
2019-02-04T03:20:09.563Z,65.47
2019-02-04T03:22:53.586Z,65.49
2019-02-04T03:25:43.985Z,65.70
2019-02-04T03:28:40.624Z,65.72
2019-02-04T03:34:30.103Z,65.81
2019-02-04T03:40:16.581Z,65.59
2019-02-04T03:49:10.622Z,65.14
2019-02-04T03:55:19.389Z,64.94
2019-02-04T03:57:58.784Z,64.62
2019-02-04T04:04:04.066Z,64.37
2019-02-04T04:15:17.436Z,65.54
2019-02-04T04:17:57.729Z,65.37
2019-02-04T04:20:57.569Z,65.57
2019-02-04T04:44:05.953Z,66.50
2019-02-04T04:50:02.496Z,66.64
2019-02-04T04:53:12.321Z,66.45
2019-02-04T04:56:11.980Z,66.37
2019-02-04T04:59:03.053Z,66.37
2019-02-04T05:01:20.652Z,66.03
2019-02-04T05:04:00.134Z,66.03
2019-02-04T05:10:14.232Z,66.50
2019-02-04T05:27:10.156Z,66.32
2019-02-04T05:29:39.045Z,66.54
2019-02-04T05:40:51.776Z,66.23
2019-02-04T05:52:04.103Z,66.08
2019-02-04T05:57:52.225Z,65.85
2019-02-04T06:00:48.528Z,65.68
2019-02-04T06:03:59.298Z,65.67
2019-02-04T06:06:27.999Z,65.71
2019-02-04T06:09:27.376Z,65.39
2019-02-04T06:15:20.008Z,65.71
2019-02-04T06:20:48.623Z,66.05
2019-02-04T06:23:57.260Z,66.18
2019-02-04T06:30:09.801Z,65.75
2019-02-04T06:32:47.271Z,65.73
2019-02-04T06:38:36.475Z,65.93
2019-02-04T06:47:01.788Z,65.43
2019-02-04T06:49:49.506Z,65.17
2019-02-04T06:52:28.937Z,65.31
2019-02-04T06:55:36.533Z,65.10
2019-02-04T06:58:26.326Z,65.47
2019-02-04T07:01:20.936Z,65.47
2019-02-04T07:03:52.080Z,65.38
2019-02-04T07:06:43.490Z,65.59
2019-02-04T07:11:56.982Z,65.12
2019-02-04T07:14:52.166Z,65.87
2019-02-04T07:20:32.432Z,65.39
2019-02-04T10:09:40.104Z,55.56
2019-02-04T10:12:25.543Z,55.26
2019-02-04T10:15:14.798Z,53.67
2019-02-04T10:18:11.356Z,54.33
2019-02-04T10:20:50.567Z,53.25
2019-02-04T10:26:54.987Z,52.10
2019-02-04T10:30:29.463Z,51.46
2019-02-04T10:35:16.767Z,51.02
2019-02-04T10:37:43.649Z,51.20
2019-02-04T10:40:23.857Z,50.73
2019-02-04T10:42:55.421Z,48.36
2019-02-04T10:45:24.920Z,48.36
2019-02-04T10:47:59.155Z,50.12
2019-02-04T10:50:27.686Z,49.60
2019-02-04T10:52:59.138Z,49.62
2019-02-04T10:55:29.139Z,47.98
2019-02-04T10:57:57.846Z,47.21
2019-02-04T11:00:34.051Z,46.72
2019-02-04T11:03:03.123Z,48.01
2019-02-04T11:05:35.199Z,49.38
2019-02-04T11:08:04.449Z,50.50
2019-02-04T11:10:35.718Z,50.50
2019-02-04T11:13:16.597Z,49.72
2019-02-04T11:15:48.674Z,49.15
2019-02-04T11:18:17.381Z,51.88
2019-02-04T11:20:57.645Z,52.81
2019-02-04T11:23:23.513Z,51.25
2019-02-04T11:25:58.833Z,50.83
2019-02-04T11:28:38.614Z,52.05
2019-02-04T11:31:14.480Z,51.30
2019-02-04T11:33:46.883Z,50.20
2019-02-04T11:36:17.630Z,48.46
2019-02-04T11:38:49.357Z,47.77
2019-02-04T11:41:18.170Z,48.62
2019-02-04T11:43:53.214Z,47.52
2019-02-04T11:46:22.076Z,47.22
2019-02-04T11:48:56.817Z,48.31
2019-02-04T11:51:31.803Z,49.43
2019-02-04T11:54:34.673Z,48.07
2019-02-04T11:57:04.331Z,48.06
2019-02-04T11:59:35.267Z,48.00
2019-02-04T12:02:09.550Z,45.90
2019-02-04T12:04:53.802Z,46.26
2019-02-04T12:07:34.547Z,45.86
2019-02-04T12:10:05.721Z,44.49
2019-02-04T12:12:37.281Z,44.49
2019-02-04T12:15:14.272Z,42.06
2019-02-04T12:17:44.657Z,42.48
2019-02-04T12:20:14.363Z,42.45
2019-02-04T12:22:43.784Z,42.73
2019-02-04T12:25:41.954Z,42.90
2019-02-04T12:28:13.803Z,43.93
2019-02-04T12:30:43.929Z,44.67
2019-02-04T12:33:37.557Z,44.79
2019-02-04T12:36:09.802Z,44.61
2019-02-04T12:38:44.055Z,44.23
2019-02-04T12:41:20.261Z,44.06
2019-02-04T12:43:48.850Z,44.59
2019-02-04T12:46:20.420Z,44.13
2019-02-04T12:48:55.553Z,44.13
2019-02-04T12:51:40.729Z,44.55
2019-02-04T12:54:10.020Z,44.09
2019-02-04T12:56:46.805Z,44.45
2019-02-04T12:59:20.317Z,44.61
2019-02-04T13:01:50.950Z,44.72
2019-02-04T13:04:20.641Z,44.31
2019-02-04T13:07:17.293Z,43.14
2019-02-04T13:09:49.769Z,42.97
2019-02-04T13:12:20.699Z,42.94
2019-02-04T13:14:49.620Z,42.17
2019-02-04T13:17:23.527Z,42.42
2019-02-04T13:19:56.675Z,42.58
2019-02-04T13:22:28.792Z,42.76
2019-02-04T13:25:00.659Z,41.66
2019-02-04T13:27:31.461Z,41.47
2019-02-04T13:30:08.765Z,41.40
2019-02-04T13:32:39.148Z,40.15
2019-02-04T13:35:15.999Z,40.15
2019-02-04T13:37:50.262Z,40.56
2019-02-04T13:40:25.193Z,39.92
2019-02-04T13:42:55.156Z,40.59
2019-02-04T13:48:43.773Z,40.53
2019-02-04T13:51:13.067Z,41.03
2019-02-04T13:53:42.188Z,40.67
2019-02-04T13:56:16.044Z,40.55
2019-02-04T13:58:47.154Z,40.16
2019-02-04T14:01:31.465Z,40.45
2019-02-04T14:04:15.239Z,39.87
2019-02-04T14:06:46.766Z,39.92
2019-02-04T14:09:21.380Z,39.96
2019-02-04T14:11:57.356Z,39.92
2019-02-04T14:14:27.858Z,39.93
2019-02-04T14:17:01.474Z,40.12
2019-02-04T14:19:31.730Z,39.79
2019-02-04T14:22:09.346Z,39.56
2019-02-04T14:24:51.921Z,39.71
2019-02-04T14:27:27.538Z,39.51
2019-02-04T14:30:00.203Z,40.37
2019-02-04T14:32:34.482Z,40.91
2019-02-04T14:35:03.561Z,40.52
2019-02-04T14:37:36.508Z,40.89
2019-02-04T14:40:18.136Z,40.63
2019-02-04T14:42:40.649Z,41.14
2019-02-04T14:45:31.624Z,41.33
2019-02-04T14:48:18.170Z,41.71
2019-02-04T14:51:06.350Z,42.32
2019-02-04T14:54:24.422Z,42.43
2019-02-04T14:57:25.117Z,43.00
2019-02-04T15:00:00.329Z,44.62
2019-02-04T15:02:52.380Z,44.68
2019-02-04T15:05:27.328Z,44.77
2019-02-04T15:08:20.518Z,44.12
2019-02-04T15:11:23.427Z,44.04
2019-02-04T15:14:46.210Z,44.36
2019-02-04T15:17:27.226Z,44.94
2019-02-04T15:20:18.016Z,45.30
2019-02-04T15:23:19.836Z,45.41
2019-02-04T15:27:45.529Z,44.93
2019-02-04T15:33:31.527Z,44.93
2019-02-04T15:37:06.410Z,44.87
2019-02-04T15:42:44.679Z,44.77
2019-02-04T15:55:11.949Z,44.67
2019-02-04T15:58:05.133Z,44.70
2019-02-04T16:00:53.110Z,44.81
2019-02-04T16:03:22.279Z,44.98
2019-02-04T16:05:55.646Z,44.80
2019-02-04T16:08:46.679Z,45.38
2019-02-04T16:11:21.690Z,45.43
2019-02-04T16:17:30.967Z,44.93
2019-02-04T16:20:41.292Z,45.26
2019-02-04T16:26:31.880Z,45.63
2019-02-04T16:44:33.574Z,45.64
2019-02-04T16:47:27.695Z,45.64
2019-02-04T16:53:30.162Z,45.56
2019-02-04T16:59:36.249Z,44.94
2019-02-04T17:13:06.360Z,45.56
2019-02-04T17:14:00.875Z,46.00
2019-02-04T17:17:06.469Z,45.39
2019-02-04T17:22:22.496Z,45.37
2019-02-04T17:24:56.011Z,44.88
2019-02-04T17:27:25.177Z,45.31
2019-02-04T17:29:58.203Z,44.95
2019-02-04T17:33:08.906Z,44.48
2019-02-04T17:35:28.763Z,45.05
2019-02-04T17:50:13.872Z,45.91
2019-02-04T17:53:04.424Z,45.28
2019-02-04T17:59:04.785Z,45.69
2019-02-04T18:02:12.092Z,46.09
2019-02-04T18:11:00.773Z,46.32
2019-02-04T18:14:18.782Z,46.94
2019-02-04T18:26:07.448Z,47.18
2019-02-04T18:31:45.245Z,47.17
2019-02-04T18:34:39.789Z,48.47
2019-02-04T18:40:09.619Z,48.14
2019-02-04T18:48:33.941Z,47.72
2019-02-04T18:57:19.290Z,48.17
2019-02-04T18:59:58.471Z,48.90
2019-02-04T19:05:35.080Z,49.04
2019-02-04T19:08:05.106Z,48.75
2019-02-04T19:14:00.794Z,48.57
2019-02-04T19:16:59.050Z,48.62
2019-02-04T19:19:35.708Z,48.35
2019-02-04T19:28:34.886Z,47.37
2019-02-04T19:34:00.634Z,48.31
2019-02-04T19:36:51.668Z,48.11
2019-02-04T19:45:43.000Z,47.69
2019-02-04T20:12:52.937Z,47.55
2019-02-04T20:15:40.747Z,47.05
2019-02-04T20:26:35.064Z,47.19
2019-02-04T20:29:22.079Z,46.84
2019-02-04T20:35:11.358Z,47.02
2019-02-04T20:37:40.996Z,47.33
2019-02-04T20:40:11.330Z,47.22
2019-02-04T20:42:42.842Z,47.07
2019-02-04T20:45:32.939Z,47.26
2019-02-04T20:48:12.642Z,46.96
2019-02-04T20:51:03.251Z,46.99
2019-02-04T20:53:46.880Z,47.06
2019-02-04T20:56:22.307Z,47.35
2019-02-04T20:59:05.126Z,47.44
2019-02-04T21:01:42.668Z,46.69
2019-02-04T21:04:13.477Z,46.38
2019-02-04T21:06:56.563Z,47.97
2019-02-04T21:09:30.811Z,47.97
2019-02-04T21:12:04.234Z,47.13
2019-02-04T21:21:37.954Z,47.03
2019-02-04T21:24:11.855Z,46.41
2019-02-04T21:32:09.240Z,45.99
2019-02-04T21:34:40.617Z,46.38
2019-02-04T21:37:11.849Z,46.34
2019-02-04T21:39:54.521Z,46.54
2019-02-04T21:42:50.618Z,46.97
2019-02-04T21:45:30.298Z,47.19
2019-02-04T21:48:03.491Z,47.26
2019-02-04T21:50:45.484Z,47.27
2019-02-04T21:53:21.633Z,47.06
2019-02-04T21:56:06.792Z,46.45
2019-02-04T21:59:15.062Z,46.24
2019-02-04T22:01:33.271Z,46.53
2019-02-04T22:04:05.960Z,46.69
2019-02-04T22:06:58.909Z,47.04
2019-02-04T22:09:33.816Z,47.60
2019-02-04T22:12:16.566Z,48.54
2019-02-04T22:14:54.631Z,50.88
2019-02-04T22:17:26.891Z,51.76
2019-02-04T22:20:06.637Z,51.95
2019-02-04T22:22:55.069Z,52.63
2019-02-04T22:25:32.462Z,52.72
2019-02-04T22:28:13.120Z,52.77
2019-02-04T22:30:47.966Z,52.31
2019-02-04T22:33:23.417Z,52.48
2019-02-04T22:35:52.326Z,52.11
2019-02-04T22:38:24.719Z,50.54
2019-02-04T22:40:54.496Z,50.20
2019-02-04T22:43:27.085Z,53.16
2019-02-04T22:45:57.992Z,54.35
2019-02-04T22:48:36.404Z,54.80
2019-02-04T22:51:08.752Z,54.94
2019-02-04T22:53:38.793Z,55.20
2019-02-04T22:56:13.060Z,55.20
2019-02-04T22:58:47.079Z,56.07
2019-02-04T23:01:23.736Z,56.35
2019-02-04T23:06:36.132Z,58.01
2019-02-04T23:09:38.149Z,58.21
2019-02-04T23:12:25.679Z,58.80
2019-02-04T23:15:29.550Z,60.48
2019-02-04T23:24:40.115Z,61.92
2019-02-04T23:27:19.626Z,63.81
2019-02-04T23:45:21.805Z,65.25
2019-02-04T23:51:21.609Z,65.96
2019-02-04T23:54:03.369Z,66.24
2019-02-04T23:56:42.693Z,65.01
2019-02-04T23:59:54.253Z,64.14
